Time;durP1;ratioP1;P1;durP2;ratioP2;P2;SDS_P1;SDS_P2;PMS_P1;PMS_P2;Temp;Humidity;BMP_temperature;BMP_pressure;BME280_temperature;BME280_humidity;BME280_pressure;Samples;Min_cycle;Max_cycle;Signal;HPM_P1;HPM_P2
2023/03/09 00:02:21;;;;;;;;;2.00;0.67;;;;;12.46;100.00;99084.66;5079674;27;45244;-77
2023/03/09 00:04:46;;;;;;;;;1.33;1.33;;;;;12.42;100.00;99088.00;5071983;28;45505;-77
2023/03/09 00:07:12;;;;;;;;;1.00;1.00;;;;;12.42;100.00;99090.66;5073737;28;47443;-78
2023/03/09 00:09:37;;;;;;;;;2.00;2.00;;;;;12.37;100.00;99100.13;5079700;28;46560;-77
2023/03/09 00:12:02;;;;;;;;;1.00;1.00;;;;;12.34;100.00;99108.59;5078346;28;45406;-78
2023/03/09 00:14:28;;;;;;;;;2.67;1.00;;;;;12.29;100.00;99102.28;5080215;28;45503;-78
2023/03/09 00:16:54;;;;;;;;;1.33;0.33;;;;;12.28;100.00;99103.34;5079576;28;45137;-77
2023/03/09 00:19:26;;;;;;;;;1.00;1.00;;;;;12.25;100.00;99110.72;5079607;27;45426;-78
2023/03/09 00:21:52;;;;;;;;;1.00;1.00;;;;;12.30;100.00;99122.59;5079685;27;45276;-77
2023/03/09 00:24:20;;;;;;;;;1.33;1.33;;;;;12.30;100.00;99131.38;5078478;28;45563;-77
2023/03/09 00:26:51;;;;;;;;;2.67;2.00;;;;;12.28;100.00;99125.47;5079192;27;45279;-77
2023/03/09 00:29:18;;;;;;;;;2.00;2.00;;;;;12.21;100.00;99122.09;5074863;28;48633;-76
2023/03/09 00:31:43;;;;;;;;;3.00;1.67;;;;;12.24;100.00;99149.06;5074753;28;45495;-77
2023/03/09 00:34:10;;;;;;;;;1.33;1.33;;;;;12.17;100.00;99147.53;5079608;27;45479;-77
2023/03/09 00:36:36;;;;;;;;;1.00;1.00;;;;;12.16;100.00;99153.91;5079019;28;45272;-77
2023/03/09 00:39:01;;;;;;;;;2.00;2.00;;;;;12.14;100.00;99150.63;5078034;28;47314;-77
2023/03/09 00:41:30;;;;;;;;;1.00;1.00;;;;;12.10;100.00;99169.72;5079343;27;45276;-77
2023/03/09 00:43:56;;;;;;;;;2.00;2.00;;;;;12.11;100.00;99181.19;5078541;27;45377;-77
2023/03/09 00:46:21;;;;;;;;;1.00;1.00;;;;;12.03;100.00;99179.59;5078989;27;45466;-77
2023/03/09 00:48:47;;;;;;;;;1.00;1.00;;;;;11.99;100.00;99181.91;5078021;28;47526;-77
2023/03/09 00:51:12;;;;;;;;;1.00;1.00;;;;;12.04;100.00;99183.09;5077387;28;57580;-77
2023/03/09 00:53:39;;;;;;;;;0.33;0.33;;;;;12.07;100.00;99196.00;5079452;28;45333;-77
2023/03/09 00:56:07;;;;;;;;;3.00;1.33;;;;;12.00;100.00;99175.53;5077533;28;46408;-77
2023/03/09 00:58:33;;;;;;;;;2.33;2.33;;;;;12.07;100.00;99201.31;5079572;28;47346;-77
2023/03/09 01:00:59;;;;;;;;;2.33;2.00;;;;;12.02;100.00;99183.31;5081214;28;45743;-77
2023/03/09 01:03:25;;;;;;;;;2.33;1.00;;;;;11.94;100.00;99184.41;5083329;27;45389;-77
2023/03/09 01:05:51;;;;;;;;;3.00;2.00;;;;;11.98;100.00;99196.25;5082293;27;45457;-77
2023/03/09 01:08:16;;;;;;;;;1.00;1.00;;;;;11.95;100.00;99204.69;5082719;27;46029;-77
2023/03/09 01:10:42;;;;;;;;;2.00;0.00;;;;;11.97;100.00;99217.75;5091912;27;45289;-77
2023/03/09 01:13:09;;;;;;;;;0.00;0.00;;;;;11.97;100.00;99218.59;5062832;28;45463;-77
2023/03/09 01:15:35;;;;;;;;;2.00;1.00;;;;;11.96;100.00;99219.63;5074656;28;46204;-77
2023/03/09 01:18:00;;;;;;;;;2.00;2.00;;;;;11.91;100.00;99213.34;5073426;28;45453;-77
2023/03/09 01:20:25;;;;;;;;;1.00;1.00;;;;;11.94;100.00;99227.00;5081733;28;54094;-77
2023/03/09 01:22:50;;;;;;;;;1.00;1.00;;;;;11.92;100.00;99241.59;5081058;28;52157;-77
2023/03/09 01:25:16;;;;;;;;;1.00;1.00;;;;;11.89;100.00;99239.34;5079892;28;56889;-77
2023/03/09 01:27:41;;;;;;;;;1.00;1.00;;;;;11.79;100.00;99238.00;5082228;27;45829;-77
2023/03/09 01:30:07;;;;;;;;;2.67;1.00;;;;;11.84;100.00;99237.34;5078792;28;45244;-77
2023/03/09 01:32:33;;;;;;;;;2.00;1.00;;;;;11.78;100.00;99238.22;5072905;28;45387;-76
2023/03/09 01:34:58;;;;;;;;;0.00;0.00;;;;;11.74;100.00;99238.66;5082370;28;45375;-77
2023/03/09 01:37:24;;;;;;;;;1.00;1.00;;;;;11.77;100.00;99247.25;5092915;27;45551;-77
2023/03/09 01:39:49;;;;;;;;;3.00;2.00;;;;;11.71;100.00;99241.75;5084974;27;45336;-77
2023/03/09 01:42:15;;;;;;;;;1.00;1.00;;;;;11.71;100.00;99241.75;5082656;27;45294;-77
2023/03/09 01:44:43;;;;;;;;;1.67;1.67;;;;;11.77;100.00;99252.56;5080739;28;45925;-77
2023/03/09 01:47:09;;;;;;;;;1.00;1.00;;;;;11.76;100.00;99258.94;5082165;28;45290;-76
2023/03/09 01:49:48;;;;;;;;;1.00;1.00;;;;;11.74;100.00;99262.63;5081953;28;45240;-77
2023/03/09 01:52:21;;;;;;;;;2.00;2.00;;;;;11.67;100.00;99258.41;5081819;27;45504;-76
2023/03/09 01:54:52;;;;;;;;;2.00;1.00;;;;;11.74;100.00;99278.59;5081694;27;46606;-77
2023/03/09 01:57:36;;;;;;;;;2.00;1.33;;;;;11.66;100.00;99265.56;5081987;27;46377;-77
2023/03/09 02:00:18;;;;;;;;;1.00;1.00;;;;;11.65;100.00;99265.78;5080748;28;45461;-77
2023/03/09 02:02:47;;;;;;;;;2.00;1.00;;;;;11.73;100.00;99290.28;5080769;28;45403;-77
2023/03/09 02:05:19;;;;;;;;;1.33;0.67;;;;;11.69;100.00;99281.09;5080443;28;46184;-77
2023/03/09 02:07:48;;;;;;;;;1.33;1.33;;;;;11.67;100.00;99288.47;5081933;27;45327;-77
2023/03/09 02:10:22;;;;;;;;;2.33;1.00;;;;;11.64;100.00;99280.13;5080396;27;45296;-77
2023/03/09 02:12:52;;;;;;;;;3.33;1.67;;;;;11.65;100.00;99277.25;5080519;28;45451;-77
2023/03/09 02:15:19;;;;;;;;;2.00;1.00;;;;;11.65;100.00;99274.59;5081624;27;45318;-77
2023/03/09 02:17:45;;;;;;;;;3.00;2.00;;;;;11.62;100.00;99280.34;5081368;27;45402;-77
2023/03/09 02:20:31;;;;;;;;;1.00;1.00;;;;;11.65;100.00;99279.09;5081435;27;45377;-77
2023/03/09 02:22:57;;;;;;;;;1.00;1.00;;;;;11.70;100.00;99288.03;5081883;27;45297;-77
2023/03/09 02:25:36;;;;;;;;;2.00;2.00;;;;;11.69;100.00;99277.63;5081143;27;45427;-77
2023/03/09 02:28:03;;;;;;;;;1.33;1.00;;;;;11.82;100.00;99298.78;5080246;28;47334;-77
2023/03/09 02:30:32;;;;;;;;;1.00;1.00;;;;;11.88;100.00;99297.09;5074652;27;45327;-77
2023/03/09 02:33:03;;;;;;;;;3.00;2.00;;;;;11.93;100.00;99301.78;5075252;28;45317;-77
2023/03/09 02:35:28;;;;;;;;;2.67;2.00;;;;;11.91;100.00;99287.88;5081397;27;45502;-77
2023/03/09 02:37:53;;;;;;;;;0.33;0.33;;;;;11.93;100.00;99291.94;5079681;28;55753;-77
2023/03/09 02:40:29;;;;;;;;;2.00;2.00;;;;;12.00;100.00;99298.03;5080854;28;56376;-77
2023/03/09 02:42:55;;;;;;;;;1.33;1.33;;;;;12.06;100.00;99298.19;5081579;27;45476;-77
2023/03/09 02:45:21;;;;;;;;;2.00;1.67;;;;;12.07;100.00;99295.34;5072039;27;45291;-78
2023/03/09 02:47:47;;;;;;;;;2.00;2.00;;;;;12.15;100.00;99309.41;5077098;28;45993;-77
2023/03/09 02:50:13;;;;;;;;;2.00;2.00;;;;;12.16;100.00;99298.53;5089243;27;45374;-77
2023/03/09 02:52:38;;;;;;;;;4.00;2.00;;;;;12.18;100.00;99315.09;5083914;27;45236;-77
2023/03/09 02:55:05;;;;;;;;;3.00;3.00;;;;;12.13;100.00;99293.66;5081062;27;45322;-77
2023/03/09 02:57:31;;;;;;;;;3.33;2.67;;;;;12.21;100.00;99319.97;5080924;27;45301;-77
2023/03/09 02:59:56;;;;;;;;;4.33;3.00;;;;;12.23;100.00;99325.09;5081292;28;45321;-77
2023/03/09 03:02:21;;;;;;;;;2.00;2.00;;;;;12.31;100.00;99318.66;5081054;27;45699;-78
2023/03/09 03:04:47;;;;;;;;;3.00;3.00;;;;;12.20;100.00;99326.34;5081234;27;45318;-77
2023/03/09 03:07:12;;;;;;;;;3.67;3.00;;;;;12.30;100.00;99333.81;5080445;27;46250;-77
2023/03/09 03:09:37;;;;;;;;;2.00;2.00;;;;;12.33;100.00;99330.72;5080868;27;45246;-77
2023/03/09 03:12:03;;;;;;;;;3.67;2.00;;;;;12.30;100.00;99327.69;5080679;27;45325;-78
2023/03/09 03:14:28;;;;;;;;;4.00;2.33;;;;;12.36;100.00;99345.44;5080928;27;45293;-77
2023/03/09 03:16:54;;;;;;;;;4.00;2.00;;;;;12.34;100.00;99335.03;5078916;28;48045;-78
2023/03/09 03:19:20;;;;;;;;;3.00;2.00;;;;;12.41;100.00;99336.78;5080606;28;53593;-77
2023/03/09 03:21:45;;;;;;;;;2.67;2.67;;;;;12.34;100.00;99342.22;5078906;28;45363;-77
2023/03/09 03:24:11;;;;;;;;;3.67;2.33;;;;;12.30;100.00;99339.16;5079047;28;45292;-78
2023/03/09 03:26:36;;;;;;;;;3.33;2.00;;;;;12.32;100.00;99346.94;5080299;28;46491;-78
2023/03/09 03:29:02;;;;;;;;;1.00;1.00;;;;;12.36;100.00;99345.44;5079296;28;45334;-77
2023/03/09 03:31:27;;;;;;;;;3.67;1.67;;;;;12.34;100.00;99344.88;5080125;27;45285;-77
2023/03/09 03:33:52;;;;;;;;;4.33;3.00;;;;;12.35;100.00;99343.81;5080464;27;45382;-77
2023/03/09 03:36:18;;;;;;;;;4.00;3.33;;;;;12.42;100.00;99360.56;5080399;27;46067;-77
2023/03/09 03:38:43;;;;;;;;;2.00;2.00;;;;;12.37;100.00;99355.88;5079293;28;45398;-77
2023/03/09 03:41:08;;;;;;;;;4.67;3.00;;;;;12.35;100.00;99368.63;5080086;28;45443;-78
2023/03/09 03:43:34;;;;;;;;;3.00;3.00;;;;;12.35;100.00;99363.28;5080317;28;50571;-78
2023/03/09 03:45:59;;;;;;;;;1.00;1.00;;;;;12.36;100.00;99356.94;5078828;28;47405;-77
2023/03/09 03:48:24;;;;;;;;;5.67;4.00;;;;;12.35;100.00;99349.16;5080345;28;45333;-78
2023/03/09 03:50:49;;;;;;;;;4.00;4.00;;;;;12.38;100.00;99367.38;5078446;28;53101;-77
2023/03/09 03:53:15;;;;;;;;;2.00;2.00;;;;;12.32;100.00;99353.09;5079961;27;53040;-77
2023/03/09 03:55:40;;;;;;;;;2.00;2.00;;;;;12.43;100.00;99372.03;5079613;27;46448;-77
2023/03/09 03:58:06;;;;;;;;;2.33;1.67;;;;;12.45;100.00;99373.44;5080454;28;45456;-76
2023/03/09 04:00:31;;;;;;;;;5.00;3.00;;;;;12.42;100.00;99371.22;5079985;27;45254;-77
2023/03/09 04:02:58;;;;;;;;;3.67;3.00;;;;;12.43;100.00;99370.19;5080093;27;45325;-77
2023/03/09 04:05:23;;;;;;;;;3.33;2.67;;;;;12.40;100.00;99375.97;5065688;27;46211;-76
2023/03/09 04:07:48;;;;;;;;;5.33;3.00;;;;;12.39;100.00;99387.63;5067296;28;45371;-77
2023/03/09 04:10:14;;;;;;;;;2.67;1.67;;;;;12.44;100.00;99390.47;5079801;27;45329;-77
2023/03/09 04:12:39;;;;;;;;;5.00;2.00;;;;;12.41;100.00;99396.25;5079865;27;45299;-77
2023/03/09 04:15:05;;;;;;;;;2.33;1.00;;;;;12.42;100.00;99395.19;5079706;27;45322;-77
2023/03/09 04:17:31;;;;;;;;;2.00;2.00;;;;;12.41;100.00;99395.41;5080136;27;45397;-77
2023/03/09 04:19:56;;;;;;;;;4.00;2.00;;;;;12.45;100.00;99392.09;5079573;27;45437;-77
2023/03/09 04:22:21;;;;;;;;;3.33;2.33;;;;;12.37;100.00;99398.50;5077882;28;45870;-76
2023/03/09 04:24:50;;;;;;;;;2.33;2.00;;;;;12.43;100.00;99415.50;5079663;27;45981;-76
2023/03/09 04:27:15;;;;;;;;;2.00;2.00;;;;;12.37;100.00;99403.03;5079907;28;45326;-76
2023/03/09 04:29:41;;;;;;;;;3.00;3.00;;;;;12.34;100.00;99398.97;5079942;27;45225;-77
2023/03/09 04:32:07;;;;;;;;;2.33;2.33;;;;;12.41;100.00;99398.06;5079014;27;45507;-77
2023/03/09 04:34:32;;;;;;;;;3.00;3.00;;;;;12.31;100.00;99388.75;5078892;27;46007;-77
2023/03/09 04:36:58;;;;;;;;;4.67;3.00;;;;;12.35;100.00;99397.09;5078163;28;45964;-77
2023/03/09 04:39:23;;;;;;;;;1.00;1.00;;;;;12.40;100.00;99412.44;5079261;27;45585;-77
2023/03/09 04:41:48;;;;;;;;;2.00;2.00;;;;;12.37;100.00;99413.69;5079642;27;45258;-77
2023/03/09 04:44:14;;;;;;;;;4.00;1.00;;;;;12.33;100.00;99407.19;5079391;28;45345;-77
2023/03/09 04:46:39;;;;;;;;;4.67;3.00;;;;;12.34;100.00;99424.78;5079573;27;45321;-77
2023/03/09 04:49:05;;;;;;;;;4.33;3.67;;;;;12.37;100.00;99425.16;5078277;28;45451;-77
2023/03/09 04:51:30;;;;;;;;;3.00;2.00;;;;;12.36;100.00;99422.72;5061377;28;45873;-77
2023/03/09 04:53:55;;;;;;;;;3.67;2.33;;;;;12.39;100.00;99432.94;5071701;28;49125;-77
2023/03/09 04:56:21;;;;;;;;;3.00;2.00;;;;;12.45;100.00;99436.59;5078940;28;45272;-77
2023/03/09 04:58:47;;;;;;;;;5.67;4.00;;;;;12.45;100.00;99429.41;5077992;27;45354;-77
2023/03/09 05:01:13;;;;;;;;;2.00;1.33;;;;;12.42;100.00;99413.06;5078823;27;45420;-77
2023/03/09 05:03:39;;;;;;;;;5.00;4.67;;;;;12.45;100.00;99420.59;5079377;28;46145;-76
2023/03/09 05:06:04;;;;;;;;;3.33;3.00;;;;;12.50;100.00;99436.75;5077513;28;45326;-77
2023/03/09 05:08:30;;;;;;;;;4.67;3.67;;;;;12.50;100.00;99447.41;5079262;27;45276;-77
2023/03/09 05:10:55;;;;;;;;;3.00;3.00;;;;;12.53;100.00;99446.13;5078326;27;45668;-76
2023/03/09 05:13:20;;;;;;;;;3.00;3.00;;;;;12.49;100.00;99443.13;5078772;28;55042;-77
2023/03/09 05:15:46;;;;;;;;;3.33;3.00;;;;;12.58;100.00;99446.31;5077607;28;45340;-77
2023/03/09 05:18:11;;;;;;;;;4.00;3.00;;;;;12.59;100.00;99443.44;5079108;28;45425;-77
2023/03/09 05:20:38;;;;;;;;;5.00;3.00;;;;;12.56;100.00;99432.38;5078906;27;45423;-77
2023/03/09 05:23:03;;;;;;;;;4.33;3.33;;;;;12.62;100.00;99435.00;5078831;27;46322;-77
2023/03/09 05:25:30;;;;;;;;;4.33;3.67;;;;;12.62;100.00;99439.50;5077241;27;45387;-78
2023/03/09 05:27:55;;;;;;;;;5.00;5.00;;;;;12.63;100.00;99444.63;5078092;28;45309;-77
2023/03/09 05:30:20;;;;;;;;;3.00;3.00;;;;;12.66;100.00;99455.88;5078596;27;45303;-78
2023/03/09 05:32:48;;;;;;;;;4.00;3.00;;;;;12.60;100.00;99444.25;5078492;27;45321;-77
2023/03/09 05:35:13;;;;;;;;;3.00;3.00;;;;;12.63;100.00;99452.59;5077377;28;45362;-77
2023/03/09 05:37:39;;;;;;;;;4.67;3.33;;;;;12.63;100.00;99451.78;5078779;27;45335;-77
2023/03/09 05:40:05;;;;;;;;;3.00;2.00;;;;;12.70;100.00;99463.22;5078526;28;45313;-77
2023/03/09 05:42:31;;;;;;;;;3.67;3.33;;;;;12.66;100.00;99456.69;5066302;27;46424;-77
2023/03/09 05:44:56;;;;;;;;;2.33;1.00;;;;;12.62;100.00;99458.97;5079779;28;45323;-77
2023/03/09 05:47:22;;;;;;;;;6.00;4.00;;;;;12.61;100.00;99465.31;5082207;27;45311;-77
2023/03/09 05:49:50;;;;;;;;;3.67;2.00;;;;;12.57;100.00;99460.69;5081531;28;45232;-78
2023/03/09 05:52:15;;;;;;;;;7.00;3.00;;;;;12.56;100.00;99461.69;5080485;28;47334;-78
2023/03/09 05:54:41;;;;;;;;;7.00;4.00;;;;;12.56;100.00;99475.84;5091089;27;46355;-77
2023/03/09 05:57:06;;;;;;;;;6.67;3.00;;;;;12.56;100.00;99469.69;5074758;28;45480;-77
2023/03/09 05:59:32;;;;;;;;;3.67;3.33;;;;;12.53;100.00;99470.94;5081864;27;45659;-78
2023/03/09 06:01:57;;;;;;;;;3.00;3.00;;;;;12.54;100.00;99471.78;5080781;28;48229;-77
2023/03/09 06:04:23;;;;;;;;;6.00;4.33;;;;;12.59;100.00;99487.91;5081653;27;45306;-77
2023/03/09 06:06:48;;;;;;;;;6.00;4.00;;;;;12.55;100.00;99487.53;5082196;27;45380;-78
2023/03/09 06:09:13;;;;;;;;;6.33;4.67;;;;;12.60;100.00;99494.91;5081437;28;45499;-77
2023/03/09 06:11:39;;;;;;;;;6.67;4.00;;;;;12.56;100.00;99491.00;5081814;27;45980;-76
2023/03/09 06:14:04;;;;;;;;;5.00;3.33;;;;;12.52;100.00;99490.66;5081518;28;45357;-76
2023/03/09 06:16:29;;;;;;;;;2.67;2.33;;;;;12.56;100.00;99499.00;5082107;28;45304;-77
2023/03/09 06:18:55;;;;;;;;;5.00;5.00;;;;;12.57;100.00;99504.13;5081465;28;45325;-77
2023/03/09 06:21:21;;;;;;;;;2.67;2.67;;;;;12.55;100.00;99502.72;5081354;27;45324;-78
2023/03/09 06:23:46;;;;;;;;;3.00;3.00;;;;;12.57;100.00;99508.66;5079750;28;45988;-78
2023/03/09 06:26:12;;;;;;;;;4.33;3.00;;;;;12.63;100.00;99518.41;5081538;27;45520;-78
2023/03/09 06:28:38;;;;;;;;;4.67;3.00;;;;;12.67;100.00;99516.97;5080411;28;45227;-77
2023/03/09 06:31:13;;;;;;;;;4.00;4.00;;;;;12.74;100.00;99525.72;5079980;28;46930;-77
2023/03/09 06:33:42;;;;;;;;;4.00;4.00;;;;;12.72;100.00;99522.44;5080964;27;45456;-77
2023/03/09 06:36:09;;;;;;;;;8.00;3.00;;;;;12.79;100.00;99521.56;5081484;27;45407;-77
2023/03/09 06:38:35;;;;;;;;;4.67;2.00;;;;;12.75;100.00;99514.00;5081516;27;45338;-78
2023/03/09 06:41:00;;;;;;;;;3.00;2.33;;;;;12.83;100.00;99533.44;5079596;28;47055;-78
2023/03/09 06:43:26;;;;;;;;;5.00;4.67;;;;;12.82;100.00;99531.81;5081444;28;45302;-77
2023/03/09 06:45:51;;;;;;;;;4.33;4.00;;;;;12.87;100.00;99542.66;5081133;28;45362;-77
2023/03/09 06:48:16;;;;;;;;;4.67;3.33;;;;;12.92;100.00;99553.47;5081134;28;45308;-77
2023/03/09 06:50:43;;;;;;;;;5.00;3.67;;;;;12.92;100.00;99550.78;5080734;28;48537;-78
2023/03/09 06:53:09;;;;;;;;;5.33;5.00;;;;;12.93;100.00;99547.06;5080929;27;45344;-77
2023/03/09 06:55:35;;;;;;;;;3.33;3.33;;;;;12.96;100.00;99548.50;5080120;27;45429;-76
2023/03/09 06:58:01;;;;;;;;;4.00;2.00;;;;;12.92;100.00;99545.47;5076469;28;48641;-77
2023/03/09 07:00:26;;;;;;;;;4.00;4.00;;;;;12.98;100.00;99557.91;5074107;28;45699;-77
2023/03/09 07:02:52;;;;;;;;;3.67;3.67;;;;;13.10;100.00;99576.69;5081167;28;45355;-77
2023/03/09 07:05:17;;;;;;;;;7.00;5.00;;;;;13.11;100.00;99564.19;5080864;27;45520;-77
2023/03/09 07:07:42;;;;;;;;;4.67;2.00;;;;;13.13;100.00;99570.91;5078675;28;45972;-76
2023/03/09 07:10:12;;;;;;;;;4.67;3.67;;;;;13.24;100.00;99579.22;5079853;28;45346;-77
2023/03/09 07:12:38;;;;;;;;;5.33;3.67;;;;;13.22;100.00;99568.78;5068502;27;45522;-78
2023/03/09 07:15:05;;;;;;;;;6.00;3.33;;;;;13.29;100.00;99578.56;5077246;27;45440;-78
2023/03/09 07:17:30;;;;;;;;;5.00;5.00;;;;;13.29;100.00;99570.56;5077408;27;45952;-77
2023/03/09 07:19:56;;;;;;;;;6.67;6.33;;;;;13.36;100.00;99584.66;5076557;28;51474;-77
2023/03/09 07:22:22;;;;;;;;;5.67;5.33;;;;;13.35;100.00;99581.16;5077064;27;45393;-77
2023/03/09 07:24:47;;;;;;;;;5.33;4.00;;;;;13.32;100.00;99562.13;5077093;27;45429;-77
2023/03/09 07:27:13;;;;;;;;;6.00;5.33;;;;;13.38;100.00;99583.38;5077661;27;45389;-77
2023/03/09 07:29:40;;;;;;;;;7.33;7.00;;;;;13.47;100.00;99580.44;5077144;28;46304;-78
2023/03/09 07:32:06;;;;;;;;;9.00;7.00;;;;;13.48;100.00;99592.75;5075361;27;46092;-78
2023/03/09 07:34:33;;;;;;;;;5.33;3.33;;;;;13.49;100.00;99597.88;5077172;27;45531;-78
2023/03/09 07:36:59;;;;;;;;;6.67;5.00;;;;;13.52;100.00;99601.16;5076509;27;45744;-79
2023/03/09 07:39:24;;;;;;;;;5.67;5.33;;;;;13.55;100.00;99596.19;5073565;27;46189;-79
2023/03/09 07:41:50;;;;;;;;;4.33;3.67;;;;;13.57;100.00;99601.28;5062187;28;45245;-78
2023/03/09 07:44:15;;;;;;;;;5.67;4.00;;;;;13.56;100.00;99595.13;5077349;28;45431;-78
2023/03/09 07:46:41;;;;;;;;;5.67;4.67;;;;;13.61;100.00;99600.63;5077095;27;45425;-80
2023/03/09 07:49:06;;;;;;;;;5.00;4.67;;;;;13.68;100.00;99613.09;5071902;28;47104;-79
2023/03/09 07:51:32;;;;;;;;;9.67;6.33;;;;;13.74;100.00;99609.53;5073192;28;45421;-80
2023/03/09 07:53:57;;;;;;;;;6.00;5.00;;;;;13.75;100.00;99603.97;5073444;28;45482;-79
2023/03/09 07:56:23;;;;;;;;;8.67;5.33;;;;;13.73;100.00;99599.88;5076087;27;45644;-78
2023/03/09 07:58:52;;;;;;;;;6.00;6.00;;;;;13.70;100.00;99600.31;5071989;27;46021;-79
2023/03/09 08:01:18;;;;;;;;;5.00;5.00;;;;;13.82;100.00;99619.09;5070489;28;45511;-79
2023/03/09 08:03:45;;;;;;;;;7.00;5.33;;;;;13.83;100.00;99626.06;5073623;28;46364;-77
2023/03/09 08:06:11;;;;;;;;;7.00;4.00;;;;;13.80;100.00;99621.19;5073920;28;47129;-77
2023/03/09 08:08:36;;;;;;;;;5.33;5.33;;;;;13.83;100.00;99629.53;5072809;27;45454;-79
2023/03/09 08:11:03;;;;;;;;;8.33;5.67;;;;;13.85;100.00;99621.31;5073822;28;45396;-77
2023/03/09 08:13:29;;;;;;;;;9.00;7.00;;;;;13.93;100.00;99636.22;5076573;27;45452;-78
2023/03/09 08:15:54;;;;;;;;;5.33;4.00;;;;;13.87;100.00;99630.75;5074285;27;45461;-78
2023/03/09 08:18:20;;;;;;;;;5.67;5.67;;;;;13.93;100.00;99628.22;5076691;28;45474;-79
2023/03/09 08:20:46;;;;;;;;;6.33;4.67;;;;;13.98;100.00;99631.03;5076751;27;45268;-78
2023/03/09 08:23:12;;;;;;;;;4.33;4.33;;;;;13.91;100.00;99617.75;5075748;28;45391;-78
2023/03/09 08:25:37;;;;;;;;;6.67;6.00;;;;;13.97;100.00;99624.88;5072745;27;46590;-78
2023/03/09 08:28:04;;;;;;;;;4.67;4.67;;;;;13.99;100.00;99621.97;5073893;28;45408;-78
2023/03/09 08:30:30;;;;;;;;;5.00;4.33;;;;;14.04;100.00;99640.00;5076318;27;45598;-79
2023/03/09 08:32:56;;;;;;;;;6.33;5.33;;;;;14.09;100.00;99640.97;5074624;28;45407;-79
2023/03/09 08:35:27;;;;;;;;;6.00;5.67;;;;;14.07;100.00;99632.34;5073342;28;45480;-78
2023/03/09 08:37:52;;;;;;;;;3.67;3.67;;;;;14.17;100.00;99634.50;5075700;27;45599;-78
2023/03/09 08:40:18;;;;;;;;;4.67;4.33;;;;;14.24;100.00;99647.75;5076051;27;45142;-79
2023/03/09 08:42:43;;;;;;;;;6.33;5.00;;;;;14.30;100.00;99638.84;5076036;27;45500;-79
2023/03/09 08:45:10;;;;;;;;;10.33;7.00;;;;;14.41;100.00;99639.94;5074594;28;45992;-78
2023/03/09 08:47:36;;;;;;;;;4.33;2.67;;;;;14.44;100.00;99644.00;5074044;28;45557;-79
2023/03/09 08:50:03;;;;;;;;;8.00;5.00;;;;;14.56;100.00;99654.75;5075243;27;45438;-79
2023/03/09 08:52:34;;;;;;;;;4.33;3.67;;;;;14.56;100.00;99633.34;5075280;27;45382;-80
2023/03/09 08:54:59;;;;;;;;;7.00;6.00;;;;;14.63;100.00;99634.06;5072662;28;47239;-78
2023/03/09 08:57:25;;;;;;;;;10.33;5.33;;;;;14.74;100.00;99638.66;5075505;28;45465;-75
2023/03/09 08:59:50;;;;;;;;;8.00;7.00;;;;;14.82;100.00;99637.53;5075463;28;46163;-75
2023/03/09 09:02:15;;;;;;;;;7.67;6.33;;;;;14.93;100.00;99632.44;5075510;28;50465;-75
2023/03/09 09:04:42;;;;;;;;;6.00;6.00;;;;;15.00;100.00;99633.16;5076086;27;45476;-75
2023/03/09 09:07:08;;;;;;;;;10.00;5.00;;;;;15.06;100.00;99640.25;5071025;27;45577;-79
2023/03/09 09:09:33;;;;;;;;;6.00;4.33;;;;;15.13;100.00;99646.31;5073754;28;45316;-78
2023/03/09 09:11:59;;;;;;;;;7.00;5.33;;;;;15.08;100.00;99637.34;5073749;28;46781;-78
2023/03/09 09:14:25;;;;;;;;;9.67;5.00;;;;;15.15;100.00;99659.47;5075759;27;45329;-79
2023/03/09 09:16:50;;;;;;;;;7.33;4.00;;;;;15.17;100.00;99643.16;5075354;27;45518;-78
2023/03/09 09:19:16;;;;;;;;;4.33;4.33;;;;;15.19;100.00;99649.91;5076001;28;45227;-80
2023/03/09 09:21:42;;;;;;;;;9.33;6.00;;;;;15.23;100.00;99651.06;5076435;28;45547;-76
2023/03/09 09:24:07;;;;;;;;;8.00;6.00;;;;;15.29;100.00;99641.28;5078544;28;45469;-75
2023/03/09 09:26:32;;;;;;;;;5.33;5.00;;;;;15.33;100.00;99647.00;5077529;27;48502;-76
2023/03/09 09:29:00;;;;;;;;;6.33;5.00;;;;;15.39;100.00;99651.44;5078867;27;45433;-76
2023/03/09 09:31:26;;;;;;;;;7.33;5.33;;;;;15.39;100.00;99641.53;5077899;27;45485;-76
2023/03/09 09:33:51;;;;;;;;;9.00;6.67;;;;;15.50;100.00;99642.56;5075099;28;45863;-79
2023/03/09 09:36:18;;;;;;;;;3.67;3.33;;;;;15.61;100.00;99642.78;5078692;27;45463;-80
2023/03/09 09:38:44;;;;;;;;;8.00;5.67;;;;;15.60;100.00;99636.66;5078355;28;45753;-80
2023/03/09 09:41:18;;;;;;;;;10.33;7.33;;;;;15.67;100.00;99638.34;5078201;28;45493;-80
2023/03/09 09:43:46;;;;;;;;;8.67;6.67;;;;;15.65;100.00;99634.06;5088135;27;45305;-79
2023/03/09 09:46:15;;;;;;;;;8.00;7.00;;;;;15.62;100.00;99629.16;5078493;28;46116;-79
2023/03/09 09:48:43;;;;;;;;;6.33;5.00;;;;;15.64;100.00;99634.28;5094520;27;45351;-78
2023/03/09 09:51:32;;;;;;;;;8.33;7.00;;;;;15.64;100.00;99631.63;5078750;27;45417;-79
2023/03/09 09:54:11;;;;;;;;;11.33;8.33;;;;;15.67;100.00;99627.66;5079174;27;45358;-76
2023/03/09 09:56:57;;;;;;;;;7.67;6.33;;;;;15.71;100.00;99626.16;5078346;28;46118;-78
2023/03/09 09:59:50;;;;;;;;;7.00;4.67;;;;;15.75;100.00;99629.97;5078345;27;45424;-77
2023/03/09 10:02:51;;;;;;;;;8.33;6.00;;;;;15.75;100.00;99629.97;5076588;27;45368;-78
2023/03/09 10:05:55;;;;;;;;;6.67;5.67;;;;;15.78;100.00;99629.50;5075818;28;45267;-77
2023/03/09 10:08:39;;;;;;;;;8.67;7.67;;;;;15.83;100.00;99624.22;5065183;28;45430;-78
2023/03/09 10:11:09;;;;;;;;;8.00;4.67;;;;;15.83;100.00;99623.44;5070195;28;45477;-78
2023/03/09 10:13:42;;;;;;;;;8.00;5.00;;;;;15.90;100.00;99618.75;5078353;27;45425;-78
2023/03/09 10:16:15;;;;;;;;;6.00;4.67;;;;;16.01;100.00;99625.16;5076599;27;45872;-78
2023/03/09 10:18:47;;;;;;;;;8.00;5.00;;;;;16.14;100.00;99632.13;5078533;28;45448;-77
2023/03/09 10:21:22;;;;;;;;;7.00;5.67;;;;;16.23;100.00;99627.19;5078448;27;45529;-78
2023/03/09 10:23:47;;;;;;;;;10.00;7.33;;;;;16.24;100.00;99624.25;5077291;27;45443;-78
2023/03/09 10:26:18;;;;;;;;;8.67;5.67;;;;;16.27;100.00;99625.66;5078537;27;45404;-79
2023/03/09 10:28:49;;;;;;;;;6.67;6.33;;;;;16.29;100.00;99628.91;5078539;27;45420;-77
2023/03/09 10:31:22;;;;;;;;;5.00;3.67;;;;;16.26;100.00;99627.50;5076822;27;46621;-80
2023/03/09 10:33:56;;;;;;;;;5.33;3.00;;;;;16.25;100.00;99625.88;5077994;27;45378;-78
2023/03/09 10:36:30;;;;;;;;;6.33;5.00;;;;;16.26;100.00;99624.81;5077443;28;45415;-78
2023/03/09 10:39:21;;;;;;;;;6.67;4.67;;;;;16.32;100.00;99624.94;5074246;28;47469;-79
2023/03/09 10:41:46;;;;;;;;;11.00;4.33;;;;;16.38;100.00;99619.41;5087742;27;45322;-77
2023/03/09 10:44:19;;;;;;;;;11.00;8.00;;;;;16.52;100.00;99622.63;5071978;27;45841;-79
2023/03/09 10:47:01;;;;;;;;;7.67;7.67;;;;;16.67;100.00;99631.97;5071621;28;45834;-78
2023/03/09 10:49:27;;;;;;;;;5.00;4.00;;;;;16.75;100.00;99620.03;5073432;28;47152;-78
2023/03/09 10:51:58;;;;;;;;;4.00;3.00;;;;;16.66;100.00;99606.22;5072770;28;45420;-78
2023/03/09 10:54:28;;;;;;;;;9.67;5.00;;;;;16.75;100.00;99612.81;5073273;28;45439;-78
2023/03/09 10:56:54;;;;;;;;;8.67;6.00;;;;;16.85;100.00;99608.66;5074396;28;45355;-78
2023/03/09 10:59:22;;;;;;;;;3.33;3.00;;;;;16.89;100.00;99609.81;5071599;28;46624;-78
2023/03/09 11:01:51;;;;;;;;;1.00;1.00;;;;;16.87;100.00;99607.38;5073712;27;45823;-78
2023/03/09 11:04:36;;;;;;;;;3.67;3.00;;;;;16.85;100.00;99603.31;5075523;28;45445;-79
2023/03/09 11:07:25;;;;;;;;;8.00;5.00;;;;;16.99;100.00;99601.09;5080194;27;45668;-77
2023/03/09 11:09:52;;;;;;;;;11.67;7.33;;;;;17.32;100.00;99599.47;5078915;28;47688;-80
2023/03/09 11:12:22;;;;;;;;;6.00;5.00;;;;;17.50;100.00;99605.59;5079302;28;45253;-77
2023/03/09 11:14:59;;;;;;;;;5.67;3.67;;;;;17.25;100.00;99596.13;5080990;27;45388;-79
2023/03/09 11:17:32;;;;;;;;;4.67;3.33;;;;;17.23;100.00;99591.00;5080956;27;45370;-80
2023/03/09 11:20:12;;;;;;;;;6.00;6.00;;;;;17.29;100.00;99595.41;5081035;27;46194;-80
2023/03/09 11:22:46;;;;;;;;;4.67;4.67;;;;;17.34;100.00;99580.41;5079342;28;45858;-80
2023/03/09 11:25:21;;;;;;;;;3.00;3.00;;;;;17.41;100.00;99581.03;5080525;28;45254;-79
2023/03/09 11:27:52;;;;;;;;;8.67;5.33;;;;;17.56;100.00;99590.34;5080715;27;45382;-80